Time;durP1;ratioP1;P1;durP2;ratioP2;P2;SDS_P1;SDS_P2;PMS_P1;PMS_P2;Temp;Humidity;BMP_temperature;BMP_pressure;BME280_temperature;BME280_humidity;BME280_pressure;Samples;Min_cycle;Max_cycle;Signal;HPM_P1;HPM_P2
2021/08/25 00:00:55;;;;;;;9.55;7.50;;;17.60;72.80;;;;;;5058240;28;20184;-87
2021/08/25 00:03:21;;;;;;;8.55;7.75;;;17.50;72.90;;;;;;5060998;28;20201;-88
2021/08/25 00:05:47;;;;;;;9.07;7.40;;;17.40;73.10;;;;;;5055885;28;20181;-89
2021/08/25 00:08:12;;;;;;;12.53;8.20;;;17.50;73.40;;;;;;5043420;28;20639;-89
2021/08/25 00:10:38;;;;;;;9.27;8.37;;;17.50;73.40;;;;;;5047913;28;20185;-88
2021/08/25 00:13:07;;;;;;;9.03;8.13;;;17.50;73.60;;;;;;5053194;28;20221;-87
2021/08/25 00:15:37;;;;;;;11.40;9.13;;;17.60;73.50;;;;;;5052697;28;20240;-87
2021/08/25 00:18:04;;;;;;;8.98;8.07;;;17.50;73.60;;;;;;5070362;28;20178;-89
2021/08/25 00:20:30;;;;;;;9.88;8.88;;;17.60;73.60;;;;;;5052830;28;20334;-88
2021/08/25 00:22:56;;;;;;;17.42;10.48;;;17.40;73.90;;;;;;5052986;28;20205;-87
2021/08/25 00:25:22;;;;;;;10.87;9.77;;;17.20;74.50;;;;;;5053517;28;20184;-88
2021/08/25 00:27:47;;;;;;;9.57;8.60;;;17.30;74.90;;;;;;5055375;28;20192;-88
2021/08/25 00:30:13;;;;;;;13.30;8.60;;;17.30;74.80;;;;;;5059783;28;20427;-89
2021/08/25 00:32:39;;;;;;;9.60;8.57;;;17.40;74.70;;;;;;5077612;28;20197;-89
2021/08/25 00:35:05;;;;;;;12.30;8.23;;;17.30;74.70;;;;;;5059839;28;20188;-88
2021/08/25 00:37:32;;;;;;;13.13;8.80;;;17.30;74.80;;;;;;5059776;28;20169;-89
2021/08/25 00:39:58;;;;;;;11.23;9.75;;;17.30;75.10;;;;;;5060939;28;20200;-87
2021/08/25 00:42:24;;;;;;;14.38;9.45;;;17.30;75.00;;;;;;5061537;28;20197;-87
2021/08/25 00:44:49;;;;;;;11.60;8.13;;;17.30;74.60;;;;;;5061791;28;20227;-88
2021/08/25 00:47:16;;;;;;;13.07;10.00;;;17.20;74.50;;;;;;5061515;28;20430;-88
2021/08/25 00:49:45;;;;;;;11.13;9.30;;;17.20;74.40;;;;;;5078975;28;20165;-88
2021/08/25 00:52:11;;;;;;;9.73;8.73;;;17.10;74.70;;;;;;5058726;28;20268;-89
2021/08/25 00:54:36;;;;;;;11.48;9.07;;;17.10;74.70;;;;;;5059299;28;20181;-88
2021/08/25 00:57:03;;;;;;;9.43;8.53;;;17.10;74.50;;;;;;5059100;28;20169;-87
2021/08/25 00:59:31;;;;;;;10.98;8.60;;;17.10;74.50;;;;;;5059469;28;20249;-88
2021/08/25 01:01:57;;;;;;;9.65;8.55;;;17.20;74.30;;;;;;5058892;28;20249;-88
2021/08/25 01:04:41;;;;;;;9.65;8.65;;;17.20;74.00;;;;;;5060160;28;20196;-87
2021/08/25 01:07:10;;;;;;;11.18;9.82;;;17.20;73.80;;;;;;5061330;28;20188;-88
2021/08/25 01:09:42;;;;;;;13.10;9.05;;;17.10;73.80;;;;;;5078625;28;20233;-87
2021/08/25 01:12:09;;;;;;;11.18;8.88;;;17.10;74.00;;;;;;5060448;28;20300;-87
2021/08/25 01:14:36;;;;;;;13.80;9.50;;;17.00;74.10;;;;;;5048840;28;20188;-87
2021/08/25 01:17:04;;;;;;;9.38;8.23;;;17.10;74.20;;;;;;5037094;28;20182;-88
2021/08/25 01:19:52;;;;;;;12.95;9.65;;;17.00;74.00;;;;;;5038121;28;20197;-88
2021/08/25 01:22:21;;;;;;;11.40;9.93;;;17.10;73.90;;;;;;5023364;28;20214;-88
2021/08/25 01:24:55;;;;;;;10.82;7.93;;;16.90;73.90;;;;;;5038694;28;20177;-88
2021/08/25 01:27:24;;;;;;;17.73;11.18;;;16.90;74.10;;;;;;5040113;28;20177;-87
2021/08/25 01:29:51;;;;;;;12.52;9.63;;;16.90;74.10;;;;;;5040583;28;20181;-88
2021/08/25 01:32:18;;;;;;;11.35;9.23;;;16.90;74.30;;;;;;5040729;28;20213;-88
2021/08/25 01:34:58;;;;;;;11.52;9.90;;;16.90;74.00;;;;;;5045611;28;20200;-88
2021/08/25 01:37:25;;;;;;;14.10;9.52;;;16.90;74.10;;;;;;5064126;28;20177;-87
2021/08/25 01:39:55;;;;;;;10.20;9.20;;;16.70;74.20;;;;;;5042180;28;20196;-87
2021/08/25 01:42:22;;;;;;;10.07;8.77;;;16.80;74.30;;;;;;5058298;28;20669;-87
2021/08/25 01:44:49;;;;;;;13.57;10.80;;;16.80;74.10;;;;;;5044521;28;20662;-87
2021/08/25 01:47:15;;;;;;;10.77;9.10;;;16.80;74.10;;;;;;5045783;28;20184;-88
2021/08/25 01:49:45;;;;;;;11.40;9.60;;;16.80;74.10;;;;;;5039045;28;20252;-88
2021/08/25 01:52:11;;;;;;;14.10;8.93;;;16.70;74.10;;;;;;5042011;28;20467;-89
2021/08/25 01:54:37;;;;;;;12.57;9.13;;;16.70;74.40;;;;;;5039547;28;20217;-86
2021/08/25 01:57:05;;;;;;;12.80;9.77;;;16.60;74.30;;;;;;5054809;28;20168;-87
2021/08/25 01:59:31;;;;;;;11.32;9.30;;;16.60;74.20;;;;;;5036006;28;20495;-86
2021/08/25 02:01:56;;;;;;;15.80;9.50;;;16.60;74.20;;;;;;5035646;28;20277;-87
2021/08/25 02:04:22;;;;;;;10.83;9.53;;;16.70;74.10;;;;;;5037342;28;20569;-85
2021/08/25 02:06:49;;;;;;;13.57;9.53;;;16.60;74.30;;;;;;5055633;28;20173;-86
2021/08/25 02:09:15;;;;;;;11.65;9.40;;;16.60;74.20;;;;;;5037424;28;20177;-86
2021/08/25 02:11:41;;;;;;;13.13;9.33;;;16.60;74.30;;;;;;5036270;28;20177;-87
2021/08/25 02:14:07;;;;;;;16.10;11.00;;;16.60;74.10;;;;;;5037310;28;20548;-87
2021/08/25 02:16:33;;;;;;;15.63;10.43;;;16.60;74.00;;;;;;5055061;28;20181;-87
2021/08/25 02:18:59;;;;;;;13.47;11.00;;;16.60;74.00;;;;;;5037335;28;20343;-87
2021/08/25 02:21:25;;;;;;;16.90;10.82;;;16.50;74.10;;;;;;5049156;28;20184;-87
2021/08/25 02:23:51;;;;;;;18.20;11.83;;;16.50;74.30;;;;;;5050311;28;20213;-87
2021/08/25 02:26:16;;;;;;;17.60;11.23;;;16.50;74.40;;;;;;5072996;28;20228;-87
2021/08/25 02:28:48;;;;;;;13.97;10.93;;;16.50;74.50;;;;;;5057873;28;20423;-87
2021/08/25 02:31:15;;;;;;;16.15;11.90;;;16.40;74.40;;;;;;5038044;28;20427;-87
2021/08/25 02:33:41;;;;;;;18.00;10.88;;;16.30;74.70;;;;;;5053694;28;20208;-86
2021/08/25 02:36:08;;;;;;;14.18;10.85;;;16.30;74.60;;;;;;5059922;28;20169;-87
2021/08/25 02:38:34;;;;;;;18.33;11.90;;;16.40;74.40;;;;;;5059877;28;20193;-88
2021/08/25 02:41:01;;;;;;;13.48;11.07;;;16.30;74.30;;;;;;5065108;28;20172;-88
2021/08/25 02:43:27;;;;;;;12.65;10.88;;;16.30;74.40;;;;;;5083840;28;20193;-87
2021/08/25 02:45:52;;;;;;;13.53;10.63;;;16.30;74.30;;;;;;5066756;28;20215;-88
2021/08/25 02:48:18;;;;;;;19.73;11.60;;;16.30;74.10;;;;;;5066614;28;20252;-84
2021/08/25 02:50:44;;;;;;;13.80;10.23;;;16.20;73.80;;;;;;5066626;28;20187;-86
2021/08/25 02:53:09;;;;;;;16.77;12.03;;;16.20;74.00;;;;;;5066072;28;20217;-87
2021/08/25 02:55:37;;;;;;;19.03;11.43;;;16.20;74.00;;;;;;5084089;28;20171;-87
2021/08/25 02:58:03;;;;;;;14.45;11.05;;;16.20;74.00;;;;;;5066791;28;20183;-88
2021/08/25 03:00:29;;;;;;;15.17;11.30;;;16.20;74.00;;;;;;5066504;28;20196;-86
2021/08/25 03:02:55;;;;;;;19.65;13.02;;;16.10;74.20;;;;;;5065945;28;20439;-86
2021/08/25 03:05:20;;;;;;;19.47;13.50;;;16.00;74.40;;;;;;5066244;28;20255;-85
2021/08/25 03:07:46;;;;;;;18.30;12.43;;;16.10;74.30;;;;;;5066184;28;20181;-86
2021/08/25 03:10:12;;;;;;;16.00;12.20;;;16.10;74.70;;;;;;5082824;28;20186;-88
2021/08/25 03:12:38;;;;;;;15.67;12.07;;;16.10;74.60;;;;;;5064071;28;20205;-88
2021/08/25 03:15:06;;;;;;;16.67;11.38;;;16.00;74.50;;;;;;5063146;28;20415;-87
2021/08/25 03:17:32;;;;;;;19.13;12.55;;;16.10;74.50;;;;;;5062465;28;20184;-88
2021/08/25 03:19:58;;;;;;;15.63;11.23;;;16.00;74.30;;;;;;5064624;28;20205;-88
2021/08/25 03:22:24;;;;;;;18.60;11.17;;;16.00;74.30;;;;;;5063972;28;20439;-88
2021/08/25 03:24:50;;;;;;;13.40;10.18;;;16.10;74.30;;;;;;5064178;28;20189;-87
2021/08/25 03:27:17;;;;;;;13.68;11.25;;;15.90;74.50;;;;;;5049182;28;20189;-87
2021/08/25 03:29:43;;;;;;;19.55;11.50;;;15.90;74.90;;;;;;5064982;28;20181;-88
2021/08/25 03:32:08;;;;;;;11.47;10.23;;;15.90;74.80;;;;;;5068335;28;20211;-88
2021/08/25 03:34:34;;;;;;;16.40;10.97;;;15.90;74.90;;;;;;5054466;28;20192;-88
2021/08/25 03:37:00;;;;;;;18.07;11.30;;;16.00;74.90;;;;;;5065160;28;20252;-87
2021/08/25 03:39:26;;;;;;;17.03;11.10;;;16.00;74.40;;;;;;5082494;28;20208;-87
2021/08/25 03:41:51;;;;;;;16.20;12.07;;;16.00;74.60;;;;;;5064712;28;20184;-86
2021/08/25 03:44:17;;;;;;;20.30;12.40;;;15.90;74.70;;;;;;5066147;28;20169;-86
2021/08/25 03:46:43;;;;;;;14.17;10.53;;;16.00;74.60;;;;;;5051961;28;20177;-85
2021/08/25 03:49:08;;;;;;;10.50;9.27;;;15.90;74.80;;;;;;5042642;28;20181;-86
2021/08/25 03:51:34;;;;;;;16.80;11.10;;;15.80;75.10;;;;;;5038823;28;20288;-86
2021/08/25 03:54:00;;;;;;;17.10;11.10;;;15.80;75.20;;;;;;5038585;28;20467;-86
2021/08/25 03:56:25;;;;;;;14.60;11.33;;;15.80;75.50;;;;;;5038391;28;20177;-87
2021/08/25 03:58:51;;;;;;;15.43;11.47;;;15.80;75.50;;;;;;5043705;28;20204;-87
2021/08/25 04:01:17;;;;;;;14.53;10.97;;;15.90;75.40;;;;;;5065824;28;20210;-88
2021/08/25 04:03:42;;;;;;;17.60;12.27;;;15.80;75.20;;;;;;5080921;28;20208;-87
2021/08/25 04:06:08;;;;;;;14.07;11.30;;;15.70;75.70;;;;;;5060919;28;20202;-88
2021/08/25 04:08:34;;;;;;;16.13;11.75;;;15.70;75.80;;;;;;5070301;28;20173;-86
2021/08/25 04:11:00;;;;;;;25.73;11.80;;;15.80;75.50;;;;;;5062327;28;20192;-87
2021/08/25 04:13:26;;;;;;;15.90;10.67;;;15.90;75.40;;;;;;5094177;28;20205;-88
2021/08/25 04:15:51;;;;;;;18.03;11.00;;;15.80;75.00;;;;;;5058600;28;20215;-88
2021/08/25 04:18:18;;;;;;;18.83;11.30;;;15.80;75.20;;;;;;5059952;28;20553;-88
2021/08/25 04:20:43;;;;;;;14.18;11.27;;;15.70;75.20;;;;;;5050264;28;20250;-89
2021/08/25 04:23:09;;;;;;;15.57;11.47;;;15.80;75.30;;;;;;5054323;28;20189;-87
2021/08/25 04:25:35;;;;;;;16.23;12.00;;;15.70;75.40;;;;;;5060933;28;20181;-87
2021/08/25 04:28:01;;;;;;;17.73;12.50;;;15.60;75.70;;;;;;5061068;28;20193;-87
2021/08/25 04:30:26;;;;;;;15.07;11.50;;;15.70;75.60;;;;;;5060388;28;20181;-88
2021/08/25 04:32:52;;;;;;;13.57;10.20;;;15.60;75.50;;;;;;5059075;28;20209;-87
2021/08/25 04:35:18;;;;;;;18.20;11.40;;;15.60;75.70;;;;;;5059282;28;20192;-87
2021/08/25 04:37:43;;;;;;;14.60;10.73;;;15.70;75.70;;;;;;5042014;28;20223;-87
2021/08/25 04:40:09;;;;;;;12.97;10.67;;;15.60;75.50;;;;;;5038791;28;20267;-87
2021/08/25 04:42:35;;;;;;;15.73;11.70;;;15.60;75.70;;;;;;5037479;28;20528;-87
2021/08/25 04:45:01;;;;;;;13.03;11.37;;;15.70;75.60;;;;;;5054205;28;20425;-87
2021/08/25 04:47:27;;;;;;;19.50;11.70;;;15.60;75.50;;;;;;5037602;28;20507;-88
2021/08/25 04:49:53;;;;;;;16.77;12.47;;;15.50;75.60;;;;;;5037432;28;20200;-87
2021/08/25 04:52:19;;;;;;;16.37;12.13;;;15.60;75.80;;;;;;5038878;28;20468;-87
2021/08/25 04:54:44;;;;;;;20.10;11.77;;;15.50;75.70;;;;;;5039890;28;20185;-87
2021/08/25 04:57:10;;;;;;;21.37;12.20;;;15.50;76.00;;;;;;5037320;28;20177;-86
2021/08/25 04:59:36;;;;;;;19.33;13.07;;;15.60;76.00;;;;;;5037060;28;20209;-87
2021/08/25 05:02:01;;;;;;;18.63;12.47;;;15.70;75.70;;;;;;5052091;28;20180;-87
2021/08/25 05:04:27;;;;;;;17.90;11.30;;;15.70;75.30;;;;;;5059372;28;20182;-87
2021/08/25 05:06:53;;;;;;;14.57;11.73;;;15.70;75.30;;;;;;5077262;28;20229;-87
2021/08/25 05:09:19;;;;;;;17.27;11.43;;;15.60;75.20;;;;;;5058412;28;20184;-86
2021/08/25 05:11:44;;;;;;;16.33;11.98;;;15.60;75.40;;;;;;5057889;28;20185;-86
2021/08/25 05:14:10;;;;;;;22.63;12.90;;;15.60;75.20;;;;;;5053742;28;20247;-89
2021/08/25 05:16:36;;;;;;;18.90;11.57;;;15.70;75.10;;;;;;5037175;28;20185;-88
2021/08/25 05:19:01;;;;;;;14.53;11.33;;;15.70;75.00;;;;;;5036501;28;20193;-87
2021/08/25 05:21:27;;;;;;;18.20;13.13;;;15.70;75.00;;;;;;5036608;28;20181;-87
2021/08/25 05:23:54;;;;;;;16.37;12.93;;;15.80;74.60;;;;;;5036769;28;20710;-89
2021/08/25 05:26:20;;;;;;;15.35;10.63;;;15.80;74.70;;;;;;5036073;28;20205;-88
2021/08/25 05:28:46;;;;;;;19.25;11.35;;;15.90;74.50;;;;;;5036821;28;20181;-89
2021/08/25 05:31:11;;;;;;;17.03;10.60;;;16.00;74.10;;;;;;5057689;28;20272;-91
2021/08/25 05:33:37;;;;;;;18.03;10.60;;;16.00;74.60;;;;;;5048620;28;20224;-89
2021/08/25 05:36:03;;;;;;;20.63;12.20;;;16.00;73.80;;;;;;5076432;28;20169;-89
2021/08/25 05:38:29;;;;;;;16.07;10.53;;;16.10;73.90;;;;;;5059128;28;20192;-89
2021/08/25 05:40:54;;;;;;;13.50;10.10;;;16.80;73.50;;;;;;5052134;28;20416;-89
2021/08/25 05:43:20;;;;;;;20.33;8.67;;;17.40;71.00;;;;;;5048232;28;20978;-89
2021/08/25 05:45:46;;;;;;;9.33;7.73;;;18.10;68.70;;;;;;5048112;28;20192;-90
2021/08/25 05:48:12;;;;;;;13.30;8.10;;;18.60;66.00;;;;;;5037625;28;20498;-89
2021/08/25 05:50:37;;;;;;;12.37;7.90;;;19.30;64.70;;;;;;5038768;28;20181;-89
2021/08/25 05:53:03;;;;;;;8.80;7.50;;;19.90;61.70;;;;;;5037564;28;20224;-89
2021/08/25 05:55:29;;;;;;;10.50;6.20;;;20.40;59.30;;;;;;5036590;28;20173;-90
2021/08/25 05:57:55;;;;;;;8.30;7.27;;;20.50;58.10;;;;;;5037013;28;20462;-89
2021/08/25 06:00:21;;;;;;;11.53;7.77;;;21.00;57.10;;;;;;5055297;28;20418;-89
2021/08/25 06:02:47;;;;;;;9.77;7.00;;;21.30;55.50;;;;;;5044642;28;20204;-91
2021/08/25 06:05:14;;;;;;;10.40;7.20;;;21.70;54.60;;;;;;5038541;28;20416;-90
2021/08/25 06:07:41;;;;;;;12.10;8.10;;;21.70;54.00;;;;;;5038118;28;20415;-90
2021/08/25 06:10:08;;;;;;;8.93;6.83;;;21.80;53.30;;;;;;5038425;28;20431;-90
2021/08/25 06:12:34;;;;;;;9.00;7.07;;;21.90;52.30;;;;;;5037757;28;20467;-89
2021/08/25 06:15:00;;;;;;;8.67;7.20;;;21.60;52.30;;;;;;5038026;28;20411;-89
2021/08/25 06:17:26;;;;;;;8.30;6.53;;;21.40;52.50;;;;;;5037971;28;20423;-89
2021/08/25 06:19:52;;;;;;;11.60;7.23;;;21.10;53.10;;;;;;5036752;28;20431;-90
2021/08/25 06:22:18;;;;;;;9.90;7.57;;;20.90;53.60;;;;;;5036250;28;20442;-90
2021/08/25 06:24:44;;;;;;;11.10;7.40;;;21.00;54.30;;;;;;5054379;28;20415;-90
2021/08/25 06:27:09;;;;;;;15.87;6.77;;;21.00;54.30;;;;;;5037651;28;20423;-90
2021/08/25 06:29:35;;;;;;;8.53;7.43;;;21.00;54.30;;;;;;5036957;28;20192;-91
2021/08/25 06:32:01;;;;;;;17.77;7.17;;;21.10;54.20;;;;;;5035994;28;20185;-89
2021/08/25 06:34:27;;;;;;;10.70;7.60;;;20.80;54.30;;;;;;5054516;28;20185;-89
2021/08/25 06:36:52;;;;;;;8.60;7.13;;;20.50;54.90;;;;;;5036201;28;20173;-90
2021/08/25 06:39:18;;;;;;;13.33;8.20;;;20.20;56.00;;;;;;5036851;28;20688;-90
2021/08/25 06:41:44;;;;;;;10.00;7.17;;;20.10;56.90;;;;;;5036296;28;20666;-89
2021/08/25 06:44:09;;;;;;;9.00;7.20;;;20.20;56.70;;;;;;5037283;28;20246;-89
2021/08/25 06:46:35;;;;;;;11.87;9.00;;;20.40;56.60;;;;;;5036102;28;20192;-90
2021/08/25 06:49:01;;;;;;;13.77;8.53;;;20.70;56.30;;;;;;5037102;28;20188;-89
2021/08/25 06:51:28;;;;;;;18.27;8.13;;;20.80;55.20;;;;;;5036364;28;20185;-90
2021/08/25 06:53:54;;;;;;;10.48;8.35;;;20.90;55.00;;;;;;5037102;28;20221;-90
2021/08/25 06:56:21;;;;;;;7.90;6.50;;;20.70;55.10;;;;;;5037187;28;20219;-90
2021/08/25 06:58:47;;;;;;;9.30;8.07;;;20.80;55.40;;;;;;5037332;28;20232;-89
2021/08/25 07:01:13;;;;;;;16.70;8.07;;;21.00;55.30;;;;;;5036662;28;20201;-91
2021/08/25 07:03:38;;;;;;;12.50;8.27;;;20.80;55.00;;;;;;5038525;28;20280;-91
2021/08/25 07:06:04;;;;;;;14.60;6.90;;;20.70;55.00;;;;;;5038045;28;20446;-90
2021/08/25 07:08:30;;;;;;;9.43;7.60;;;20.30;56.00;;;;;;5036843;28;20177;-90
2021/08/25 07:10:55;;;;;;;11.20;7.70;;;20.10;56.20;;;;;;5038506;28;20185;-90
2021/08/25 07:13:21;;;;;;;12.17;7.67;;;19.70;56.80;;;;;;5067019;28;20204;-89
2021/08/25 07:15:47;;;;;;;10.33;8.13;;;19.60;57.60;;;;;;5057018;28;20256;-89
2021/08/25 07:18:13;;;;;;;13.33;9.60;;;19.60;58.30;;;;;;5050644;28;20185;-90
2021/08/25 07:20:38;;;;;;;17.93;8.60;;;19.50;58.60;;;;;;5079211;28;20220;-90
2021/08/25 07:23:04;;;;;;;12.73;8.17;;;19.40;59.30;;;;;;5072696;28;20235;-90
2021/08/25 07:25:30;;;;;;;11.70;7.47;;;19.30;59.10;;;;;;5077255;28;20191;-89
2021/08/25 07:27:56;;;;;;;14.80;7.17;;;19.00;59.50;;;;;;5063062;28;20204;-90
2021/08/25 07:30:21;;;;;;;13.13;8.07;;;19.10;60.10;;;;;;5063454;28;20422;-88
2021/08/25 07:32:47;;;;;;;11.17;7.70;;;19.10;60.10;;;;;;5062293;28;20217;-89
2021/08/25 07:35:14;;;;;;;15.73;8.10;;;18.90;60.60;;;;;;5062823;28;20169;-89
2021/08/25 07:37:40;;;;;;;13.40;7.45;;;19.00;61.00;;;;;;5062977;28;20494;-89
2021/08/25 07:40:07;;;;;;;14.07;8.93;;;18.80;61.80;;;;;;5062721;28;20188;-89
2021/08/25 07:42:33;;;;;;;11.50;7.60;;;18.80;61.40;;;;;;5062077;28;20451;-89
2021/08/25 07:44:59;;;;;;;13.35;6.70;;;18.90;60.50;;;;;;5061467;28;20206;-90
2021/08/25 07:47:25;;;;;;;9.63;7.40;;;18.90;60.50;;;;;;5060110;28;20199;-90
2021/08/25 07:49:50;;;;;;;10.27;7.20;;;19.10;60.50;;;;;;5061789;28;20192;-89
2021/08/25 07:52:16;;;;;;;12.40;7.50;;;19.10;60.00;;;;;;5061401;28;20209;-90
2021/08/25 07:54:42;;;;;;;10.30;6.40;;;19.20;59.90;;;;;;5061658;28;20410;-90
2021/08/25 07:57:08;;;;;;;13.07;7.67;;;19.20;59.50;;;;;;5062252;28;20408;-89
2021/08/25 07:59:34;;;;;;;9.23;5.43;;;19.10;59.10;;;;;;5062790;28;20432;-89
2021/08/25 08:02:00;;;;;;;12.00;6.27;;;19.20;59.20;;;;;;5062125;28;20177;-90
2021/08/25 08:04:26;;;;;;;11.90;6.43;;;19.20;59.40;;;;;;5054932;28;20431;-89
2021/08/25 08:06:53;;;;;;;15.70;6.90;;;19.20;59.20;;;;;;5039441;28;20945;-89
2021/08/25 08:09:19;;;;;;;11.13;6.97;;;19.30;59.30;;;;;;5039182;28;20223;-89
2021/08/25 08:11:45;;;;;;;19.65;6.30;;;19.30;58.50;;;;;;5038534;28;20181;-89
2021/08/25 08:14:11;;;;;;;11.50;6.35;;;19.30;57.70;;;;;;5039739;28;20684;-89
2021/08/25 08:16:39;;;;;;;11.13;6.77;;;19.30;57.70;;;;;;5039115;28;20180;-90
2021/08/25 08:19:19;;;;;;;10.23;6.32;;;19.30;57.60;;;;;;5042969;28;20189;-89
2021/08/25 08:21:45;;;;;;;15.45;6.20;;;19.30;57.60;;;;;;5044912;28;20507;-88
2021/08/25 08:24:11;;;;;;;6.82;5.15;;;19.40;56.90;;;;;;5040798;28;20188;-89
2021/08/25 08:26:37;;;;;;;15.73;7.37;;;19.70;57.20;;;;;;5051502;28;20185;-87
2021/08/25 08:29:04;;;;;;;10.00;5.82;;;19.60;56.30;;;;;;5046504;28;20268;-88
2021/08/25 08:31:31;;;;;;;10.57;5.32;;;19.70;56.70;;;;;;5048209;28;20216;-87
2021/08/25 08:33:57;;;;;;;14.07;5.82;;;19.80;56.20;;;;;;5041410;28;20208;-87
2021/08/25 08:36:22;;;;;;;11.43;5.57;;;19.80;55.80;;;;;;5039736;28;20466;-87
2021/08/25 08:38:48;;;;;;;9.87;6.27;;;19.90;55.40;;;;;;5038212;28;20189;-87
2021/08/25 08:41:14;;;;;;;11.90;5.17;;;20.00;55.30;;;;;;5038874;28;20202;-88
2021/08/25 08:43:48;;;;;;;13.53;6.47;;;20.20;55.60;;;;;;5038926;28;20307;-87
2021/08/25 08:46:15;;;;;;;8.45;4.82;;;20.10;55.50;;;;;;5039326;28;20412;-87
2021/08/25 08:48:42;;;;;;;8.23;4.82;;;20.10;54.50;;;;;;5043055;28;20184;-87
2021/08/25 08:51:14;;;;;;;9.75;5.03;;;20.10;54.30;;;;;;5043574;28;20272;-86
2021/08/25 08:53:40;;;;;;;7.97;4.85;;;20.30;53.90;;;;;;5061379;28;20205;-87
2021/08/25 08:56:06;;;;;;;7.00;4.40;;;20.40;53.80;;;;;;5062410;28;20223;-86
2021/08/25 08:58:32;;;;;;;6.70;4.50;;;20.50;53.90;;;;;;5047530;28;20412;-87
2021/08/25 09:00:58;;;;;;;5.07;3.63;;;20.50;53.10;;;;;;5042223;28;20182;-86
2021/08/25 09:03:26;;;;;;;8.70;4.63;;;20.60;53.20;;;;;;5043244;28;20436;-87
2021/08/25 09:05:57;;;;;;;6.75;4.25;;;20.70;53.30;;;;;;5057186;28;20181;-86
2021/08/25 09:08:28;;;;;;;10.75;4.40;;;20.80;52.60;;;;;;5078620;28;20198;-88
2021/08/25 09:11:06;;;;;;;11.82;4.53;;;20.80;51.50;;;;;;5078710;28;20197;-89
2021/08/25 09:13:36;;;;;;;4.13;3.63;;;21.00;51.20;;;;;;5061047;28;20209;-87
2021/08/25 09:16:03;;;;;;;9.20;4.22;;;20.90;50.00;;;;;;5079037;28;20399;-86
2021/08/25 09:18:29;;;;;;;8.60;4.95;;;20.80;49.40;;;;;;5061075;28;20181;-84
2021/08/25 09:20:55;;;;;;;8.43;4.03;;;21.10;49.70;;;;;;5060913;28;20197;-87
2021/08/25 09:23:27;;;;;;;7.70;4.40;;;21.00;49.10;;;;;;5077333;28;20450;-87
2021/08/25 09:25:56;;;;;;;7.70;4.60;;;20.90;48.60;;;;;;5078470;28;20402;-87
2021/08/25 09:28:36;;;;;;;10.07;4.10;;;20.90;48.90;;;;;;5061106;28;20494;-86
2021/08/25 09:31:06;;;;;;;7.25;5.40;;;20.90;48.40;;;;;;5061225;28;20505;-88
2021/08/25 09:33:38;;;;;;;5.97;3.80;;;20.80;49.10;;;;;;5060486;28;20213;-89
2021/08/25 09:36:09;;;;;;;7.40;4.23;;;20.80;48.60;;;;;;5060623;28;20427;-88
2021/08/25 09:38:35;;;;;;;8.43;4.28;;;20.90;49.30;;;;;;5060055;28;20431;-88
2021/08/25 09:41:11;;;;;;;6.32;4.07;;;20.90;48.90;;;;;;5060524;28;20241;-91
2021/08/25 09:43:42;;;;;;;6.00;3.97;;;20.80;48.30;;;;;;5055055;28;20514;-90
2021/08/25 09:46:14;;;;;;;11.98;5.18;;;20.90;48.40;;;;;;5038093;28;20474;-90
2021/08/25 09:48:41;;;;;;;9.80;4.00;;;21.00;48.70;;;;;;5038662;28;20177;-89
2021/08/25 09:51:07;;;;;;;7.90;4.15;;;21.00;48.30;;;;;;5035892;28;20428;-89
2021/08/25 09:53:34;;;;;;;6.78;3.58;;;21.10;47.80;;;;;;5037307;28;20197;-88
2021/08/25 09:56:00;;;;;;;6.35;4.13;;;21.10;47.90;;;;;;5038187;28;20262;-88
2021/08/25 09:58:25;;;;;;;9.53;5.40;;;21.20;47.40;;;;;;5039892;28;20173;-88
2021/08/25 10:00:55;;;;;;;7.33;4.20;;;21.30;46.40;;;;;;5038874;28;20419;-88
2021/08/25 10:03:22;;;;;;;8.20;3.47;;;21.50;46.10;;;;;;5040716;28;20204;-88
2021/08/25 10:05:49;;;;;;;8.70;3.90;;;21.40;45.50;;;;;;5044511;28;20419;-89
2021/08/25 10:08:16;;;;;;;6.97;4.07;;;21.50;45.20;;;;;;5045773;28;20419;-88
2021/08/25 10:10:43;;;;;;;6.53;3.97;;;21.60;45.70;;;;;;5045240;28;20502;-88
2021/08/25 10:13:09;;;;;;;9.90;4.27;;;21.50;45.90;;;;;;5064586;28;20455;-88
2021/08/25 10:15:40;;;;;;;5.43;3.80;;;21.50;45.50;;;;;;5046243;28;20766;-87
2021/08/25 10:18:37;;;;;;;4.90;3.43;;;21.40;45.60;;;;;;5046433;28;20481;-87
2021/08/25 10:21:03;;;;;;;9.60;4.23;;;21.50;45.50;;;;;;5045034;28;20466;-88
2021/08/25 10:23:54;;;;;;;5.27;4.10;;;21.60;45.40;;;;;;5054907;28;20489;-87
2021/08/25 10:26:20;;;;;;;7.13;3.60;;;21.60;44.60;;;;;;5059032;28;20434;-88
2021/08/25 10:29:07;;;;;;;5.80;4.20;;;21.50;44.00;;;;;;5076386;28;20435;-88
2021/08/25 10:31:48;;;;;;;6.57;3.37;;;21.60;44.10;;;;;;5058709;28;20179;-88
2021/08/25 10:34:16;;;;;;;7.63;4.47;;;21.80;44.10;;;;;;5057967;28;20459;-87
2021/08/25 10:36:41;;;;;;;5.40;3.40;;;21.80;43.10;;;;;;5054090;28;20768;-87
2021/08/25 10:39:30;;;;;;;5.13;3.20;;;21.70;42.60;;;;;;5059757;28;20519;-87
2021/08/25 10:41:57;;;;;;;4.50;3.43;;;22.00;42.30;;;;;;5057860;28;20200;-87
2021/08/25 10:44:41;;;;;;;7.47;3.90;;;21.90;40.50;;;;;;5059980;28;20416;-88
2021/08/25 10:47:09;;;;;;;5.40;3.50;;;21.90;40.90;;;;;;5076524;28;20435;-87
2021/08/25 10:49:41;;;;;;;7.40;3.80;;;22.00;42.00;;;;;;5092272;28;20415;-89
2021/08/25 10:52:28;;;;;;;6.00;3.17;;;22.20;42.00;;;;;;5057526;28;20432;-88
2021/08/25 10:54:55;;;;;;;7.90;4.00;;;22.20;42.30;;;;;;5059645;28;20396;-85
2021/08/25 10:57:23;;;;;;;5.70;3.40;;;22.10;42.30;;;;;;5059936;28;20427;-87
2021/08/25 10:59:49;;;;;;;7.13;3.47;;;22.30;42.40;;;;;;5059957;28;20423;-87
2021/08/25 11:02:16;;;;;;;5.10;3.40;;;22.30;42.40;;;;;;5062521;28;20473;-86
2021/08/25 11:04:43;;;;;;;4.80;3.87;;;22.20;42.00;;;;;;5044950;28;20523;-88
2021/08/25 11:07:11;;;;;;;4.60;3.13;;;22.30;42.20;;;;;;5061469;28;20407;-85
2021/08/25 11:09:41;;;;;;;7.80;3.73;;;22.20;41.80;;;;;;5044031;28;20428;-88
2021/08/25 11:12:15;;;;;;;6.23;3.00;;;22.30;42.00;;;;;;5043500;28;20485;-88
2021/08/25 11:14:52;;;;;;;7.20;3.87;;;22.40;41.80;;;;;;5043939;28;20421;-86
2021/08/25 11:17:40;;;;;;;5.03;3.70;;;22.30;42.50;;;;;;5044032;28;20470;-85
2021/08/25 11:20:09;;;;;;;7.57;3.70;;;22.30;42.20;;;;;;5043777;28;20516;-87
2021/08/25 11:22:47;;;;;;;6.27;4.23;;;22.30;42.00;;;;;;5043218;28;20558;-86
2021/08/25 11:25:18;;;;;;;6.37;4.17;;;22.40;41.30;;;;;;5043746;28;20442;-86
2021/08/25 11:27:52;;;;;;;6.43;3.37;;;22.60;41.60;;;;;;5076806;28;20408;-85
2021/08/25 11:30:20;;;;;;;4.77;3.80;;;22.50;41.20;;;;;;5060898;28;20416;-87
2021/08/25 11:32:54;;;;;;;8.03;4.07;;;22.50;41.00;;;;;;5041884;28;20467;-88
2021/08/25 11:35:25;;;;;;;6.13;3.53;;;22.40;42.10;;;;;;5030505;28;20526;-89
2021/08/25 11:37:52;;;;;;;6.90;3.80;;;22.20;42.60;;;;;;5041886;28;20423;-87
2021/08/25 11:40:22;;;;;;;5.80;3.30;;;22.30;42.30;;;;;;5058398;28;20454;-88
2021/08/25 11:42:48;;;;;;;6.40;3.37;;;22.30;41.60;;;;;;5060584;28;20439;-89
2021/08/25 11:45:21;;;;;;;7.23;4.27;;;22.40;41.60;;;;;;5060778;28;20434;-87
2021/08/25 11:47:58;;;;;;;7.37;4.47;;;22.50;42.20;;;;;;5062778;28;20459;-87
2021/08/25 11:50:26;;;;;;;6.00;3.70;;;22.40;41.70;;;;;;5061447;28;20443;-88
2021/08/25 11:52:53;;;;;;;5.97;3.60;;;22.40;42.00;;;;;;5058596;28;20508;-89
2021/08/25 11:55:20;;;;;;;8.37;4.50;;;22.40;42.50;;;;;;5039891;28;20422;-88
2021/08/25 11:57:51;;;;;;;6.67;4.77;;;22.50;41.30;;;;;;5039891;28;20411;-90
2021/08/25 12:00:46;;;;;;;7.90;4.53;;;22.50;41.70;;;;;;5040007;28;20416;-89
2021/08/25 12:03:11;;;;;;;5.97;3.80;;;22.50;41.60;;;;;;5028695;28;20814;-89
2021/08/25 12:05:40;;;;;;;5.53;3.73;;;22.60;41.60;;;;;;5052396;28;20485;-90
2021/08/25 12:08:08;;;;;;;5.93;3.60;;;22.80;41.90;;;;;;5068609;28;20188;-88
2021/08/25 12:10:40;;;;;;;6.50;3.43;;;22.80;41.20;;;;;;5040325;28;20463;-87
2021/08/25 12:13:07;;;;;;;6.80;4.10;;;22.90;40.80;;;;;;5039572;28;20463;-89
2021/08/25 12:15:45;;;;;;;14.03;4.47;;;22.80;41.30;;;;;;5024468;28;20508;-89
2021/08/25 12:18:13;;;;;;;4.33;3.43;;;23.00;41.40;;;;;;5040814;28;20445;-88
2021/08/25 12:20:41;;;;;;;7.10;4.60;;;23.00;41.80;;;;;;5040907;28;20450;-90
2021/08/25 12:23:08;;;;;;;7.47;4.13;;;23.00;41.90;;;;;;5039013;28;20440;-90
2021/08/25 12:25:45;;;;;;;7.30;4.37;;;23.00;42.10;;;;;;5041136;28;20431;-89
2021/08/25 12:28:31;;;;;;;11.20;4.00;;;22.80;42.60;;;;;;5040517;28;20513;-90
2021/08/25 12:31:09;;;;;;;10.50;4.10;;;22.80;42.10;;;;;;5039895;28;20426;-90
2021/08/25 12:33:35;;;;;;;6.10;3.97;;;22.90;42.10;;;;;;5039347;28;20528;-89
2021/08/25 12:36:19;;;;;;;6.03;4.13;;;22.90;42.20;;;;;;5040947;28;20423;-89
2021/08/25 12:38:45;;;;;;;5.10;3.83;;;22.80;42.10;;;;;;5039411;28;20224;-89
2021/08/25 12:41:11;;;;;;;5.77;3.80;;;23.00;42.10;;;;;;5057855;28;20419;-90